Time;durP1;ratioP1;P1;durP2;ratioP2;P2;SDS_P1;SDS_P2;PMS_P1;PMS_P2;Temp;Humidity;BMP_temperature;BMP_pressure;BME280_temperature;BME280_humidity;BME280_pressure;Samples;Min_cycle;Max_cycle;Signal;HPM_P1;HPM_P2
2023/10/08 00:01:33;;;;;;;6.00;2.13;;;10.20;1.00;;;;;;10400445;28;20231;-79
2023/10/08 00:06:55;;;;;;;2.77;0.60;;;10.10;1.00;;;;;;10438982;28;20282;-80
2023/10/08 00:12:17;;;;;;;1.97;1.00;;;10.00;1.00;;;;;;10438511;28;20512;-79
2023/10/08 00:17:38;;;;;;;2.10;1.10;;;9.90;1.00;;;;;;10435876;28;20200;-79
2023/10/08 00:23:02;;;;;;;4.47;1.30;;;9.80;1.00;;;;;;10438103;28;20525;-79
2023/10/08 00:28:24;;;;;;;1.10;0.70;;;9.70;1.00;;;;;;10436961;28;20284;-78
2023/10/08 00:33:46;;;;;;;2.17;0.73;;;9.70;1.00;;;;;;10461767;28;20221;-78
2023/10/08 00:39:13;;;;;;;2.70;0.70;;;9.70;1.00;;;;;;10465061;28;20188;-77
2023/10/08 00:44:47;;;;;;;3.17;0.80;;;9.70;1.00;;;;;;10422504;28;20537;-77
2023/10/08 00:50:09;;;;;;;1.67;0.70;;;9.60;1.00;;;;;;10436349;28;20203;-78
2023/10/08 00:55:33;;;;;;;2.43;1.00;;;9.50;1.00;;;;;;10437421;28;20188;-78
2023/10/08 01:01:00;;;;;;;1.60;0.80;;;9.50;1.00;;;;;;10436740;28;20265;-79
2023/10/08 01:06:21;;;;;;;1.53;0.80;;;9.30;1.00;;;;;;10445602;28;20203;-78
2023/10/08 01:11:49;;;;;;;1.70;0.90;;;9.30;1.00;;;;;;10462183;28;20498;-78
2023/10/08 01:17:19;;;;;;;3.13;0.50;;;9.20;1.00;;;;;;10437370;28;20286;-78
2023/10/08 01:22:40;;;;;;;1.00;0.50;;;9.10;1.00;;;;;;10433752;28;20306;-78
2023/10/08 01:28:08;;;;;;;1.37;1.00;;;9.10;1.00;;;;;;10468485;28;20205;-77
2023/10/08 01:33:31;;;;;;;7.47;1.13;;;9.00;1.00;;;;;;10433386;28;20211;-77
2023/10/08 01:38:54;;;;;;;4.67;0.80;;;8.80;1.00;;;;;;10436106;28;20453;-79
2023/10/08 01:44:16;;;;;;;1.47;0.70;;;8.70;1.00;;;;;;10449070;28;20223;-79
2023/10/08 01:49:39;;;;;;;1.00;0.70;;;8.60;1.00;;;;;;10464935;28;20206;-80
2023/10/08 01:55:00;;;;;;;2.53;0.63;;;8.40;1.00;;;;;;10468095;28;20496;-80
2023/10/08 02:00:23;;;;;;;1.33;0.50;;;8.40;1.00;;;;;;10442145;28;20397;-78
2023/10/08 02:05:45;;;;;;;0.80;0.63;;;8.40;1.00;;;;;;10434041;28;20201;-79
2023/10/08 02:11:08;;;;;;;1.17;0.57;;;8.40;1.00;;;;;;10436242;28;20259;-78
2023/10/08 02:16:29;;;;;;;1.10;0.50;;;8.40;1.00;;;;;;10434075;28;20206;-78
2023/10/08 02:21:50;;;;;;;4.10;0.93;;;8.30;1.00;;;;;;10435038;28;20529;-79
2023/10/08 02:27:15;;;;;;;1.37;0.93;;;8.20;1.00;;;;;;10441683;28;20382;-77
2023/10/08 02:32:42;;;;;;;1.73;1.50;;;8.20;1.00;;;;;;10455976;28;20197;-79
2023/10/08 02:38:06;;;;;;;1.23;0.80;;;8.10;1.00;;;;;;10454304;28;20200;-77
2023/10/08 02:43:30;;;;;;;1.77;0.60;;;8.10;1.00;;;;;;10455194;28;20271;-79
2023/10/08 02:48:52;;;;;;;1.37;0.83;;;8.00;1.00;;;;;;10432859;28;20202;-76
2023/10/08 02:54:18;;;;;;;1.73;0.80;;;8.10;1.00;;;;;;10449647;28;20198;-79
2023/10/08 02:59:44;;;;;;;1.23;0.77;;;8.00;1.00;;;;;;10454464;28;20388;-77
2023/10/08 03:05:08;;;;;;;2.00;0.50;;;8.10;99.90;;;;;;10455577;28;20421;-79
2023/10/08 03:10:32;;;;;;;0.70;0.47;;;7.90;1.00;;;;;;10451086;28;20237;-79
2023/10/08 03:21:20;;;;;;;1.20;1.00;;;8.00;99.90;;;;;;10453563;28;20226;-78
2023/10/08 03:26:45;;;;;;;2.00;1.10;;;8.10;99.90;;;;;;10438624;28;20284;-78
2023/10/08 03:32:13;;;;;;;2.30;1.10;;;8.20;99.90;;;;;;10453886;28;20202;-79
2023/10/08 03:37:41;;;;;;;2.80;1.10;;;8.10;99.90;;;;;;10470790;28;20500;-77
2023/10/08 03:43:14;;;;;;;2.20;1.07;;;8.00;99.90;;;;;;10452640;28;20238;-78
2023/10/08 03:48:37;;;;;;;1.20;0.80;;;8.00;99.90;;;;;;10439683;28;20223;-78
2023/10/08 03:59:31;;;;;;;2.87;1.07;;;7.70;1.00;;;;;;10439314;28;20236;-77
2023/10/08 04:04:57;;;;;;;1.60;1.00;;;7.60;1.00;;;;;;10438697;28;20528;-77
2023/10/08 04:16:06;;;;;;;1.70;0.90;;;7.50;1.00;;;;;;10462042;28;20428;-79
2023/10/08 04:21:27;;;;;;;0.77;0.57;;;7.40;1.00;;;;;;10436084;28;20225;-77
2023/10/08 04:26:50;;;;;;;2.00;1.00;;;7.40;1.00;;;;;;10436292;28;20212;-77
2023/10/08 04:32:12;;;;;;;0.93;0.57;;;7.40;1.00;;;;;;10464723;28;20271;-77
2023/10/08 04:37:40;;;;;;;1.17;0.80;;;7.40;1.00;;;;;;10436815;28;20207;-77
2023/10/08 04:43:27;;;;;;;0.93;0.50;;;7.30;1.00;;;;;;10437763;28;20233;-78
2023/10/08 04:48:52;;;;;;;1.20;0.57;;;7.30;1.00;;;;;;10435514;28;20186;-79
2023/10/08 04:54:18;;;;;;;1.33;0.60;;;7.30;1.00;;;;;;10442051;28;20224;-78
2023/10/08 04:59:39;;;;;;;1.93;0.73;;;7.20;1.00;;;;;;10435947;28;20557;-77
2023/10/08 05:05:54;;;;;;;2.53;1.03;;;7.30;1.00;;;;;;10436958;28;20296;-78
2023/10/08 05:17:09;;;;;;;2.20;1.27;;;7.20;1.00;;;;;;10454220;28;20539;-78
2023/10/08 05:27:57;;;;;;;2.10;1.23;;;7.20;1.00;;;;;;10436684;28;20190;-79
2023/10/08 05:33:49;;;;;;;2.83;1.00;;;7.30;1.00;;;;;;10434996;28;20205;-78
2023/10/08 05:50:39;;;;;;;3.47;1.43;;;7.30;1.00;;;;;;10356898;28;20234;-79
2023/10/08 05:56:16;;;;;;;2.47;1.20;;;7.40;1.00;;;;;;10377415;28;20200;-79
2023/10/08 06:01:42;;;;;;;2.23;1.57;;;7.40;1.00;;;;;;10384914;28;20323;-79
2023/10/08 06:07:16;;;;;;;2.03;1.30;;;7.60;1.00;;;;;;10425744;28;20600;-77
2023/10/08 06:12:49;;;;;;;4.27;1.80;;;7.70;1.00;;;;;;10419665;28;20224;-79
2023/10/08 06:18:12;;;;;;;2.53;1.80;;;7.80;1.00;;;;;;10419772;28;20289;-77
2023/10/08 06:23:35;;;;;;;4.30;1.47;;;8.00;1.00;;;;;;10460581;28;20221;-77
2023/10/08 06:28:58;;;;;;;3.70;1.30;;;8.20;1.00;;;;;;10451704;28;20212;-77
2023/10/08 06:34:21;;;;;;;4.10;1.33;;;8.80;1.00;;;;;;10442539;28;20210;-79
2023/10/08 06:39:48;;;;;;;2.85;1.80;;;10.20;1.00;;;;;;10461926;28;20199;-76
2023/10/08 06:45:14;;;;;;;3.92;2.55;;;11.60;1.00;;;;;;10441235;28;20235;-77
2023/10/08 06:50:35;;;;;;;2.35;1.63;;;12.90;1.00;;;;;;10440103;28;20195;-78
2023/10/08 06:55:57;;;;;;;3.08;1.75;;;13.70;1.00;;;;;;10484945;28;20214;-79
2023/10/08 07:01:24;;;;;;;2.42;1.33;;;14.50;1.00;;;;;;10445725;28;20493;-78
2023/10/08 07:06:50;;;;;;;2.20;1.60;;;15.30;1.00;;;;;;10482470;28;20479;-78
2023/10/08 07:12:14;;;;;;;3.38;2.13;;;16.20;1.00;;;;;;10456600;28;20418;-76
2023/10/08 07:17:40;;;;;;;3.67;2.67;;;16.60;99.90;;;;;;10439979;28;20200;-80
2023/10/08 07:23:02;;;;;;;3.60;2.13;;;16.70;99.90;;;;;;10438735;28;20290;-79
2023/10/08 07:28:25;;;;;;;3.70;2.30;;;16.90;99.90;;;;;;10438091;28;20385;-79
2023/10/08 07:34:15;;;;;;;3.45;2.00;;;17.20;99.90;;;;;;10438601;28;20196;-77
2023/10/08 07:39:45;;;;;;;5.00;2.53;;;17.20;99.90;;;;;;10438467;28;20197;-78
2023/10/08 07:45:07;;;;;;;2.35;1.52;;;17.60;99.90;;;;;;10439984;28;20231;-78
2023/10/08 07:50:29;;;;;;;5.32;1.70;;;17.50;99.90;;;;;;10441291;28;20279;-80
2023/10/08 07:55:51;;;;;;;4.40;2.72;;;17.80;99.90;;;;;;10474722;28;20280;-77
2023/10/08 08:01:14;;;;;;;3.97;2.53;;;17.70;99.90;;;;;;10455250;28;20270;-79
2023/10/08 08:06:37;;;;;;;4.63;2.00;;;17.90;99.90;;;;;;10480421;28;20267;-79
2023/10/08 08:11:58;;;;;;;1.40;0.90;;;18.70;99.90;;;;;;10449117;28;20200;-78
2023/10/08 08:17:19;;;;;;;2.67;1.73;;;18.50;99.90;;;;;;10437956;28;20196;-78
2023/10/08 08:22:40;;;;;;;4.03;1.20;;;18.90;99.90;;;;;;10437071;28;20220;-80
2023/10/08 08:28:05;;;;;;;1.60;1.00;;;18.80;99.90;;;;;;10438481;28;20188;-79
2023/10/08 08:33:35;;;;;;;2.58;1.48;;;19.00;99.90;;;;;;10437000;28;20211;-79
2023/10/08 08:38:56;;;;;;;1.92;1.10;;;18.50;99.90;;;;;;10463980;28;20534;-78
2023/10/08 08:44:17;;;;;;;4.57;2.28;;;18.40;99.90;;;;;;10437834;28;20220;-79
2023/10/08 08:49:40;;;;;;;2.55;1.00;;;18.40;99.90;;;;;;10463400;28;20212;-78
2023/10/08 08:55:06;;;;;;;4.55;1.95;;;18.40;99.90;;;;;;10437161;28;20193;-79
2023/10/08 09:00:30;;;;;;;2.28;1.45;;;18.90;99.90;;;;;;10444600;28;20253;-78
2023/10/08 09:05:51;;;;;;;2.22;0.98;;;17.80;99.90;;;;;;10471163;28;20228;-77
2023/10/08 09:11:16;;;;;;;3.90;1.65;;;16.10;99.90;;;;;;10470461;28;20477;-79
2023/10/08 09:16:37;;;;;;;1.30;1.05;;;15.60;99.90;;;;;;10456680;28;20285;-76
2023/10/08 09:22:15;;;;;;;3.25;1.50;;;16.40;99.90;;;;;;10435078;28;20249;-77
2023/10/08 09:27:37;;;;;;;3.58;2.00;;;17.90;99.90;;;;;;10436234;28;20515;-79
2023/10/08 09:32:58;;;;;;;3.58;2.22;;;18.70;99.90;;;;;;10433916;28;20386;-76
2023/10/08 09:38:23;;;;;;;2.55;1.05;;;19.00;99.90;;;;;;10435998;28;20212;-77
2023/10/08 09:43:47;;;;;;;1.90;1.13;;;18.50;99.90;;;;;;10434582;28;20466;-76
2023/10/08 09:49:12;;;;;;;3.05;1.00;;;18.80;99.90;;;;;;10434950;28;20483;-78
2023/10/08 09:55:03;;;;;;;1.65;0.80;;;18.40;99.90;;;;;;10435863;28;20237;-79
2023/10/08 10:00:33;;;;;;;0.70;0.52;;;18.60;99.90;;;;;;10452625;28;20196;-78
2023/10/08 10:05:59;;;;;;;2.20;1.08;;;19.00;99.90;;;;;;10450305;28;20229;-80
2023/10/08 10:11:26;;;;;;;2.30;1.00;;;19.40;99.90;;;;;;10435528;28;20225;-78
2023/10/08 10:17:14;;;;;;;2.17;0.93;;;19.40;99.90;;;;;;10434133;28;20200;-80
2023/10/08 10:22:43;;;;;;;2.22;1.00;;;19.30;99.90;;;;;;10435155;28;20224;-79
2023/10/08 10:28:07;;;;;;;5.18;1.75;;;19.50;99.90;;;;;;10428740;28;20219;-81
2023/10/08 10:33:31;;;;;;;3.97;1.40;;;19.30;99.90;;;;;;10434618;28;20197;-78
2023/10/08 10:38:53;;;;;;;2.63;2.00;;;20.00;99.90;;;;;;10433577;28;20409;-80
2023/10/08 10:44:15;;;;;;;3.67;1.95;;;20.30;99.90;;;;;;10451422;28;20419;-80
2023/10/08 10:49:36;;;;;;;2.80;1.13;;;20.20;99.90;;;;;;10441869;28;20223;-79
2023/10/08 11:05:59;;;;;;;1.52;0.90;;;20.40;99.90;;;;;;10450319;28;20235;-81
2023/10/08 11:11:28;;;;;;;2.42;1.20;;;20.20;99.90;;;;;;10481635;28;20231;-78
2023/10/08 11:16:50;;;;;;;1.48;0.68;;;20.10;99.90;;;;;;10449013;28;20391;-77
2023/10/08 11:22:16;;;;;;;2.08;1.55;;;19.60;99.90;;;;;;10432241;28;20291;-79
2023/10/08 11:27:38;;;;;;;3.40;1.52;;;20.00;99.90;;;;;;10438191;28;20266;-77
2023/10/08 11:32:59;;;;;;;1.85;1.27;;;20.40;99.90;;;;;;10439253;28;20199;-81
2023/10/08 11:38:22;;;;;;;3.13;2.33;;;20.00;99.90;;;;;;10434045;28;20220;-82
2023/10/08 11:43:44;;;;;;;6.55;3.17;;;20.10;99.90;;;;;;10440113;28;20515;-78
2023/10/08 11:49:06;;;;;;;3.95;1.63;;;20.40;99.90;;;;;;10450985;28;20193;-80
2023/10/08 11:54:27;;;;;;;1.85;1.23;;;21.30;99.90;;;;;;10451975;28;20263;-79
2023/10/08 11:59:48;;;;;;;2.88;1.13;;;21.30;99.90;;;;;;10439360;28;20227;-80
2023/10/08 12:05:18;;;;;;;3.55;1.35;;;21.80;99.90;;;;;;10440463;28;20223;-80
2023/10/08 12:10:40;;;;;;;1.52;1.05;;;21.60;99.90;;;;;;10437846;28;20523;-79
2023/10/08 12:16:12;;;;;;;5.05;1.55;;;21.30;99.90;;;;;;10439744;28;20223;-79
2023/10/08 12:21:33;;;;;;;7.03;1.50;;;21.10;99.90;;;;;;10436329;28;20200;-80
2023/10/08 12:26:55;;;;;;;1.83;0.70;;;21.40;99.90;;;;;;10436980;28;20303;-78
2023/10/08 12:32:18;;;;;;;1.90;0.90;;;20.70;99.90;;;;;;10437114;28;20212;-80
2023/10/08 12:37:40;;;;;;;1.48;0.70;;;20.40;99.90;;;;;;10436720;28;20453;-79
2023/10/08 12:43:04;;;;;;;2.53;0.93;;;20.90;99.90;;;;;;10436674;28;20278;-79
2023/10/08 12:48:27;;;;;;;2.80;1.25;;;20.40;99.90;;;;;;10436318;28;20255;-77
2023/10/08 12:53:58;;;;;;;1.67;0.90;;;20.20;99.90;;;;;;10435880;28;20272;-77
2023/10/08 12:59:23;;;;;;;1.85;0.80;;;19.30;99.90;;;;;;10457478;28;20203;-79
2023/10/08 13:04:45;;;;;;;1.50;0.70;;;19.10;99.90;;;;;;10436251;28;20294;-80
2023/10/08 13:10:07;;;;;;;0.98;0.60;;;19.20;99.90;;;;;;10435671;28;20648;-78
2023/10/08 13:15:28;;;;;;;1.85;0.65;;;18.90;99.90;;;;;;10455587;28;20208;-79
2023/10/08 13:20:51;;;;;;;4.70;1.30;;;19.00;99.90;;;;;;10426632;28;20192;-79
2023/10/08 13:26:16;;;;;;;0.93;0.60;;;19.30;99.90;;;;;;10435010;28;20281;-79
2023/10/08 13:31:38;;;;;;;1.50;1.00;;;19.30;99.90;;;;;;10435950;28;20577;-79
2023/10/08 13:36:59;;;;;;;1.67;0.90;;;18.50;99.90;;;;;;10434793;28;20265;-80
2023/10/08 13:42:20;;;;;;;1.38;0.90;;;17.60;99.90;;;;;;10435928;28;20215;-78
2023/10/08 13:47:42;;;;;;;3.20;1.17;;;18.00;99.90;;;;;;10434615;28;20197;-80
2023/10/08 13:53:03;;;;;;;0.85;0.70;;;17.60;99.90;;;;;;10435839;28;20387;-80
2023/10/08 13:58:24;;;;;;;0.73;0.60;;;17.90;99.90;;;;;;10432526;28;20211;-76
2023/10/08 14:03:53;;;;;;;1.70;1.00;;;17.30;99.90;;;;;;10433500;28;20594;-80
2023/10/08 14:09:21;;;;;;;3.08;1.52;;;;;;;;;;10441107;28;20241;-80
2023/10/08 14:14:46;;;;;;;2.67;1.20;;;15.70;1.00;;;;;;10429154;28;20206;-79
2023/10/08 14:20:12;;;;;;;4.23;1.30;;;14.90;1.00;;;;;;10444899;28;20202;-80
2023/10/08 14:25:42;;;;;;;2.50;1.02;;;14.20;1.00;;;;;;10439539;28;20311;-79
2023/10/08 14:31:03;;;;;;;0.93;0.60;;;13.90;1.00;;;;;;10442899;28;20228;-79
2023/10/08 14:47:45;;;;;;;3.37;1.87;;;13.20;1.00;;;;;;10441210;28;20219;-79
2023/10/08 14:53:06;;;;;;;2.53;1.50;;;13.10;1.00;;;;;;10441078;28;20191;-77
2023/10/08 14:58:28;;;;;;;4.03;2.20;;;12.90;1.00;;;;;;10460534;28;20206;-78
2023/10/08 15:03:50;;;;;;;2.63;1.80;;;12.80;1.00;;;;;;10439663;28;20231;-78
2023/10/08 15:09:18;;;;;;;3.23;1.40;;;12.70;1.00;;;;;;10440416;28;20528;-77
2023/10/08 15:14:42;;;;;;;2.33;1.10;;;12.40;1.00;;;;;;10445312;28;20210;-76
2023/10/08 15:20:03;;;;;;;3.43;1.50;;;12.20;1.00;;;;;;10457144;28;20221;-77
2023/10/08 15:25:25;;;;;;;5.47;2.70;;;12.00;1.00;;;;;;10438217;28;20254;-77
2023/10/08 15:30:46;;;;;;;1.70;1.20;;;11.80;1.00;;;;;;10439818;28;20234;-79
2023/10/08 15:36:07;;;;;;;3.27;1.73;;;11.70;1.00;;;;;;10471413;28;20400;-78
2023/10/08 15:41:28;;;;;;;5.00;2.43;;;11.60;1.00;;;;;;10440061;28;20224;-79
2023/10/08 15:46:50;;;;;;;4.27;2.90;;;11.60;1.00;;;;;;10470729;28;20228;-77
2023/10/08 15:52:14;;;;;;;4.83;3.20;;;11.40;1.00;;;;;;10439783;28;20263;-78
2023/10/08 15:57:35;;;;;;;5.97;3.90;;;11.40;1.00;;;;;;10436070;28;20201;-80
2023/10/08 16:02:56;;;;;;;13.03;7.13;;;11.30;1.00;;;;;;10439261;28;20219;-77
2023/10/08 16:08:17;;;;;;;9.07;5.63;;;11.20;1.00;;;;;;10421423;28;20234;-77
2023/10/08 16:13:40;;;;;;;7.00;4.57;;;11.20;1.00;;;;;;10438014;28;20200;-77
2023/10/08 16:19:01;;;;;;;9.23;5.87;;;11.10;1.00;;;;;;10460229;28;20490;-78
2023/10/08 16:24:25;;;;;;;12.67;7.00;;;11.00;1.00;;;;;;10463698;28;20265;-76
2023/10/08 16:29:47;;;;;;;7.67;5.37;;;11.00;1.00;;;;;;10468236;28;20187;-76
2023/10/08 16:35:08;;;;;;;9.43;4.87;;;10.90;1.00;;;;;;10437839;28;20225;-75
2023/10/08 16:40:30;;;;;;;5.83;3.50;;;10.80;1.00;;;;;;10443593;28;20193;-78
2023/10/08 16:45:51;;;;;;;6.57;3.80;;;10.70;1.00;;;;;;10469757;28;20541;-78
2023/10/08 16:51:14;;;;;;;8.93;5.17;;;10.70;1.00;;;;;;10462017;28;20501;-78
2023/10/08 16:56:35;;;;;;;5.33;3.70;;;10.60;1.00;;;;;;10451750;28;20196;-79
2023/10/08 17:01:56;;;;;;;6.77;2.37;;;10.50;1.00;;;;;;10436988;28;20190;-79
2023/10/08 17:07:19;;;;;;;3.13;1.57;;;10.40;1.00;;;;;;10472791;28;20562;-77
2023/10/08 17:12:40;;;;;;;3.77;1.60;;;10.30;1.00;;;;;;10472493;28;20193;-79
2023/10/08 17:18:02;;;;;;;3.60;1.80;;;10.20;1.00;;;;;;10434019;28;20278;-76
2023/10/08 17:23:23;;;;;;;2.00;1.53;;;10.10;1.00;;;;;;10434615;28;20526;-78
2023/10/08 17:28:44;;;;;;;5.00;2.17;;;10.10;1.00;;;;;;10464950;28;20224;-77
2023/10/08 17:34:06;;;;;;;3.23;1.67;;;;;;;;;;10433471;28;20214;-77
2023/10/08 17:39:27;;;;;;;4.80;2.10;;;9.80;1.00;;;;;;10435571;28;20190;-76
2023/10/08 17:44:48;;;;;;;4.87;2.17;;;9.80;99.60;;;;;;10430456;28;20281;-77
2023/10/08 17:50:10;;;;;;;3.83;1.97;;;9.80;1.00;;;;;;10435667;28;20189;-78
2023/10/08 17:55:33;;;;;;;2.37;1.77;;;9.70;1.00;;;;;;10437521;28;20430;-78
2023/10/08 18:00:54;;;;;;;3.27;1.57;;;9.50;99.90;;;;;;10445788;28;20203;-77
2023/10/08 18:06:16;;;;;;;3.37;1.40;;;9.40;99.90;;;;;;10464298;28;20402;-78
2023/10/08 18:11:43;;;;;;;3.47;1.73;;;9.40;1.00;;;;;;10457142;28;20198;-79
2023/10/08 18:17:05;;;;;;;3.87;2.20;;;9.40;1.00;;;;;;10472194;28;20233;-77
2023/10/08 18:22:26;;;;;;;2.53;1.70;;;9.30;1.00;;;;;;10442860;28;20195;-76
2023/10/08 18:27:48;;;;;;;3.17;1.70;;;9.20;1.00;;;;;;10451182;28;20247;-77
2023/10/08 18:33:09;;;;;;;2.70;1.80;;;9.30;1.00;;;;;;10468903;28;20499;-78
2023/10/08 18:38:30;;;;;;;3.93;2.10;;;9.20;1.00;;;;;;10434050;28;20411;-78
2023/10/08 18:43:55;;;;;;;5.33;2.63;;;9.10;1.00;;;;;;10458113;28;20223;-78
2023/10/08 18:49:17;;;;;;;6.70;3.10;;;9.00;1.00;;;;;;10440992;28;20230;-79
2023/10/08 18:54:39;;;;;;;6.07;2.90;;;8.80;1.00;;;;;;10441034;28;20193;-77
2023/10/08 19:00:08;;;;;;;4.73;2.77;;;8.90;1.00;;;;;;10460036;28;20394;-79
2023/10/08 19:05:29;;;;;;;3.70;2.50;;;8.80;1.00;;;;;;10452420;28;20230;-77
2023/10/08 19:10:51;;;;;;;5.47;3.10;;;8.60;1.00;;;;;;10460513;28;20243;-76
2023/10/08 19:16:15;;;;;;;5.67;3.23;;;8.40;1.00;;;;;;10453477;28;20205;-77
2023/10/08 19:21:39;;;;;;;6.97;3.67;;;8.30;1.00;;;;;;10441205;28;20207;-76
2023/10/08 19:27:01;;;;;;;13.93;3.83;;;8.20;1.00;;;;;;10439647;28;20515;-76
2023/10/08 19:32:22;;;;;;;7.30;3.13;;;8.20;1.00;;;;;;10438632;28;20215;-79
2023/10/08 19:37:44;;;;;;;6.30;3.13;;;8.20;1.00;;;;;;10439319;28;20206;-77
2023/10/08 19:43:05;;;;;;;7.90;4.07;;;8.20;1.00;;;;;;10437626;28;20291;-79
2023/10/08 19:48:26;;;;;;;6.60;3.70;;;8.20;1.00;;;;;;10451577;28;20195;-76
2023/10/08 19:53:49;;;;;;;8.93;4.17;;;8.10;1.00;;;;;;10398961;28;20201;-76
2023/10/08 19:59:12;;;;;;;7.53;3.20;;;8.10;1.00;;;;;;10414773;28;20228;-78
2023/10/08 20:04:33;;;;;;;6.33;3.50;;;8.00;1.00;;;;;;10459120;28;20217;-77
2023/10/08 20:09:54;;;;;;;8.13;4.13;;;8.00;1.00;;;;;;10448178;28;20229;-77
2023/10/08 20:15:18;;;;;;;7.93;4.80;;;8.00;1.00;;;;;;10465164;28;20213;-78
2023/10/08 20:20:40;;;;;;;6.47;3.80;;;7.90;1.00;;;;;;10435166;28;20208;-78
2023/10/08 20:26:11;;;;;;;7.07;3.50;;;7.90;1.00;;;;;;10470852;28;20231;-79
2023/10/08 20:31:34;;;;;;;6.17;3.20;;;7.90;1.00;;;;;;10436922;28;20245;-78
2023/10/08 20:36:56;;;;;;;5.17;3.40;;;7.90;1.00;;;;;;10470365;28;20502;-77
2023/10/08 20:42:20;;;;;;;8.57;4.47;;;7.80;3.60;;;;;;10434105;28;20587;-78
2023/10/08 20:47:41;;;;;;;4.47;2.97;;;7.60;1.00;;;;;;10437885;28;20222;-78
2023/10/08 20:53:02;;;;;;;5.47;3.63;;;7.70;1.00;;;;;;10436589;28;20436;-79
2023/10/08 20:58:27;;;;;;;6.27;3.60;;;7.70;1.00;;;;;;10436824;28;20190;-79
2023/10/08 21:03:48;;;;;;;4.37;3.20;;;7.60;1.00;;;;;;10468119;28;20295;-78
2023/10/08 21:09:15;;;;;;;6.50;3.03;;;7.60;1.00;;;;;;10472027;28;20237;-79
2023/10/08 21:14:36;;;;;;;3.93;2.20;;;7.50;1.00;;;;;;10473207;28;20192;-77
2023/10/08 21:19:57;;;;;;;4.40;2.83;;;7.50;1.00;;;;;;10434343;28;20197;-78
2023/10/08 21:25:20;;;;;;;5.37;2.87;;;7.50;1.00;;;;;;10436483;28;20224;-79
2023/10/08 21:30:41;;;;;;;4.80;2.50;;;7.40;1.00;;;;;;10433184;28;20206;-78
2023/10/08 21:36:03;;;;;;;3.70;2.50;;;7.40;1.00;;;;;;10467343;28;20204;-78
2023/10/08 21:41:24;;;;;;;3.83;2.93;;;7.30;1.00;;;;;;10434597;28;20458;-79
2023/10/08 21:46:46;;;;;;;6.60;3.73;;;7.10;1.00;;;;;;10435877;28;20258;-78
2023/10/08 21:52:07;;;;;;;4.67;3.23;;;7.10;1.00;;;;;;10447645;28;20281;-77
2023/10/08 21:57:28;;;;;;;5.07;2.60;;;7.10;1.00;;;;;;10468233;28;20241;-78
2023/10/08 22:02:57;;;;;;;2.40;1.87;;;7.10;1.00;;;;;;10432217;28;20223;-79
2023/10/08 22:08:22;;;;;;;4.33;2.53;;;7.00;1.00;;;;;;10433274;28;20242;-78
2023/10/08 22:13:45;;;;;;;3.30;2.27;;;7.00;1.00;;;;;;10435280;28;20203;-78
2023/10/08 22:19:09;;;;;;;7.57;2.17;;;7.00;1.00;;;;;;10437018;28;20207;-78
2023/10/08 22:24:31;;;;;;;3.60;2.10;;;7.00;1.00;;;;;;10448009;28;20220;-78
2023/10/08 22:29:54;;;;;;;2.93;1.90;;;7.00;1.00;;;;;;10434139;28;20196;-76
2023/10/08 22:35:15;;;;;;;4.73;2.77;;;7.00;1.00;;;;;;10435468;28;20196;-78
2023/10/08 22:41:22;;;;;;;4.10;2.73;;;6.90;1.00;;;;;;10446580;28;20212;-78
2023/10/08 22:46:24;;;;;;;6.07;2.73;;;7.00;1.00;;;;;;10435980;28;20225;-77
2023/10/08 22:51:48;;;;;;;4.80;2.77;;;6.90;1.00;;;;;;10441178;28;20240;-78
2023/10/08 22:57:10;;;;;;;4.50;2.40;;;6.90;1.00;;;;;;10441828;28;20197;-77
2023/10/08 23:02:32;;;;;;;3.37;2.20;;;7.00;1.00;;;;;;10496803;28;20210;-78
2023/10/08 23:07:53;;;;;;;3.77;1.43;;;7.00;1.00;;;;;;10482810;28;20249;-78
2023/10/08 23:13:15;;;;;;;4.10;2.20;;;7.00;1.00;;;;;;10476877;28;20221;-78
2023/10/08 23:18:36;;;;;;;4.90;2.57;;;7.00;1.00;;;;;;10448600;28;20206;-79
2023/10/08 23:23:57;;;;;;;6.33;2.20;;;7.10;1.00;;;;;;10439762;28;20271;-78
2023/10/08 23:29:19;;;;;;;3.40;1.80;;;7.10;1.00;;;;;;10440299;28;20423;-77
2023/10/08 23:34:41;;;;;;;3.47;1.67;;;7.20;1.00;;;;;;10435898;28;20222;-76
2023/10/08 23:40:23;;;;;;;4.30;1.60;;;7.20;1.00;;;;;;10439270;28;20267;-79
2023/10/08 23:45:54;;;;;;;5.57;2.93;;;7.20;1.00;;;;;;10438953;28;20667;-78
2023/10/08 23:51:17;;;;;;;9.23;5.17;;;7.10;1.00;;;;;;10449411;28;20224;-79
2023/10/08 23:56:42;;;;;;;6.87;3.30;;;7.00;1.00;;;;;;10472102;28;20203;-78
